This is the latest recevied weather packets stored in our database for station/object K0JSC-13. If no packets are shown the sender has not sent any weather packets the latest 10 day(s).
| Time | Temp. | Humidity | Pressure | Rain* | Wind** | Luminosity | Snow |
|---|---|---|---|---|---|---|---|
| 1777982943 | 8.89° C | 74% | 986.8 hPa | 0 mm | - | - | - |
| 1777980423 | 8.33° C | 75% | 986.2 hPa | 0 mm | - | - | - |
| 1777978443 | 8.89° C | 75% | 986 hPa | 0 mm | - | - | - |
| 1777975878 | 10° C | 71% | 986.2 hPa | 0 mm | - | - | - |
| 1777973898 | 10.56° C | 65% | 986.1 hPa | 0 mm | - | - | - |
| 1777972143 | 10.56° C | 66% | 986.1 hPa | 0 mm | - | - | - |
| 1777969626 | 11.11° C | 63% | 986 hPa | 0 mm | - | - | - |
| 1777969083 | 11.67° C | 63% | 986 hPa | 0 mm | - | - | - |
| 1777967643 | 11.67° C | 62% | 985.9 hPa | 0 mm | - | - | - |
| 1777967103 | 12.22° C | 61% | 985.8 hPa | 0 mm | - | - | - |
| 1777960443 | 12.78° C | 59% | 985.7 hPa | 0 mm | - | - | - |
| 1777959903 | 13.33° C | 58% | 985.6 hPa | 0 mm | - | - | - |
| 1777958957 | 13.33° C | 57% | 985.6 hPa | 0 mm | - | - | - |
| 1777953604 | 15° C | 46% | 984.6 hPa | 0 mm | - | - | - |
| 1777950543 | 15.56° C | 43% | 983.7 hPa | 0 mm | - | - | - |
| 1777948023 | 16.67° C | 40% | 981.5 hPa | 0 mm | - | - | - |
| 1777941903 | 20.56° C | 28% | 980.1 hPa | 0 mm | - | - | - |
| 1777940957 | 21.11° C | 27% | 980.1 hPa | 0 mm | - | - | - |
| 1777940283 | 21.11° C | 28% | 980 hPa | 0 mm | - | - | - |
| 1777939203 | 21.11° C | 27% | 980 hPa | 0 mm | - | - | - |
| 1777938843 | 21.11° C | 27% | 980 hPa | 0 mm | - | - | - |
| 1777938304 | 21.11° C | 26% | 980 hPa | 0 mm | - | - | - |
| 1777937763 | 21.67° C | 26% | 979.9 hPa | 0 mm | - | - | - |
| 1777934703 | 22.78° C | 23% | 979.7 hPa | 0 mm | - | - | - |
| 1777931643 | 22.78° C | 22% | 980.1 hPa | 0 mm | - | - | - |
* Rain latest hour (hover to see other rain measurements)
** Current wind speed in m/s (hover to see current wind gust speed)